Allegany Spring, Virginia
Current Conditions -  °F | °C
As of 2:15 PM on Tuesday 21 Oct 2014 (Local Time) from KBCB Reporting Station
Overcast Overcast  
Wind Chill: 13°   Ceiling: 3600
Heat Index: 13°   Visibility: 10mi
Dew Point:   Wind: 10mph
Humidity: 77%   Direction: 310°NW
Pressure: 29.93"   Gusts: 17mph
Location:  37.1336°N, 80.2545°W
Report Text: KBCB 211815Z AUTO 31009G15KT 10SM SCT030 BKN036 OVC060 13/09 A2993 RMK AO2
Loading
Personal Weather Stations






























Interactive Weather Map
Tropical Storm Tracking
New forecast layout! Learn more

10-Day Weather Forecast

Advertisements
Track Severe Weather on mobile